createdAt,value
2019-02-15T00:05:32.860Z,-0.60
2019-02-15T00:11:35.231Z,-0.60
2019-02-15T00:17:51.619Z,-0.70
2019-02-15T00:23:53.739Z,-0.80
2019-02-15T00:29:56.227Z,-0.80
2019-02-15T00:35:58.416Z,-0.80
2019-02-15T00:42:00.594Z,-0.80
2019-02-15T00:54:23.600Z,-0.90
2019-02-15T01:00:44.472Z,-0.80
2019-02-15T01:07:06.939Z,-0.80
2019-02-15T01:13:11.084Z,-0.90
2019-02-15T01:19:13.233Z,-0.90
2019-02-15T01:25:15.621Z,-0.90
2019-02-15T01:31:22.700Z,-1.00
2019-02-15T01:37:26.949Z,-1.00
2019-02-15T01:43:40.011Z,-1.00
2019-02-15T01:49:42.510Z,-1.10
2019-02-15T01:55:44.842Z,-1.10
2019-02-15T02:01:47.111Z,-1.10
2019-02-15T02:07:49.511Z,-1.20
2019-02-15T02:13:51.717Z,-1.30
2019-02-15T02:19:53.877Z,-1.30
2019-02-15T02:25:56.162Z,-1.30
2019-02-15T02:31:58.412Z,-1.30
2019-02-15T02:38:00.647Z,-1.40
2019-02-15T02:44:02.984Z,-1.40
2019-02-15T02:50:05.269Z,-1.40
2019-02-15T02:56:09.486Z,-1.40
2019-02-15T03:02:11.860Z,-1.30
2019-02-15T03:08:14.108Z,-1.40
2019-02-15T03:14:16.252Z,-1.40
2019-02-15T03:20:18.412Z,-1.40
2019-02-15T03:26:20.636Z,-1.40
2019-02-15T03:32:22.854Z,-1.40
2019-02-15T03:38:41.772Z,-1.50
2019-02-15T03:44:43.991Z,-1.50
2019-02-15T03:50:46.062Z,-1.60
2019-02-15T03:56:50.634Z,-1.60
2019-02-15T04:02:52.852Z,-1.60
2019-02-15T04:08:55.005Z,-1.70
2019-02-15T04:14:57.200Z,-1.70
2019-02-15T04:20:59.486Z,-1.90
2019-02-15T04:27:01.707Z,-1.90
2019-02-15T04:33:04.048Z,-1.90
2019-02-15T04:39:06.341Z,-1.90
2019-02-15T04:45:08.645Z,-2.00
2019-02-15T04:51:10.809Z,-2.00
2019-02-15T04:57:13.003Z,-2.00
2019-02-15T05:03:19.453Z,-2.00
2019-02-15T05:09:21.264Z,-1.90
2019-02-15T05:15:23.426Z,-2.00
2019-02-15T05:21:25.765Z,-2.00
2019-02-15T05:27:28.061Z,-2.10
2019-02-15T05:33:30.478Z,-2.10
2019-02-15T05:39:32.736Z,-2.10
2019-02-15T05:45:35.160Z,-2.10
2019-02-15T05:51:37.452Z,-2.10
2019-02-15T05:57:39.695Z,-2.10
2019-02-15T06:03:42.090Z,-2.10
2019-02-15T06:09:44.448Z,-2.10
2019-02-15T06:15:46.711Z,-2.20
2019-02-15T06:21:49.116Z,-2.10
2019-02-15T06:27:51.475Z,-2.10
2019-02-15T06:33:53.920Z,-2.00
2019-02-15T06:39:56.260Z,-2.00
2019-02-15T06:45:58.468Z,-1.90
2019-02-15T06:52:00.623Z,-1.80
2019-02-15T06:58:02.827Z,-1.80
2019-02-15T07:04:22.192Z,-1.70
2019-02-15T07:10:25.937Z,-1.60
2019-02-15T07:16:28.218Z,-1.50
2019-02-15T07:22:31.440Z,-1.30
2019-02-15T07:28:33.699Z,-1.20
2019-02-15T07:34:35.915Z,-1.00
2019-02-15T07:40:38.339Z,-0.80
2019-02-15T07:46:51.419Z,0.00
2019-02-15T07:52:54.023Z,1.70
2019-02-15T07:58:57.351Z,3.40
2019-02-15T08:04:59.576Z,4.70
2019-02-15T08:11:04.121Z,5.60
2019-02-15T08:17:25.724Z,6.40
2019-02-15T08:23:28.051Z,7.40
2019-02-15T08:29:30.371Z,7.70
2019-02-15T08:35:32.691Z,8.10
2019-02-15T08:41:34.863Z,9.00
2019-02-15T08:47:37.149Z,10.30
2019-02-15T08:53:39.307Z,9.80
2019-02-15T08:59:41.521Z,10.70
2019-02-15T09:05:43.999Z,10.50
2019-02-15T09:11:49.283Z,9.70
2019-02-15T09:17:51.414Z,10.30
2019-02-15T09:23:53.653Z,10.90
2019-02-15T09:29:55.971Z,11.80
2019-02-15T09:35:58.194Z,12.00
2019-02-15T09:42:00.341Z,12.10
2019-02-15T09:48:02.555Z,12.00
2019-02-15T09:54:04.695Z,12.20
2019-02-15T10:00:09.624Z,12.20
2019-02-15T10:06:12.878Z,12.10
2019-02-15T10:12:16.684Z,11.90
2019-02-15T10:18:18.839Z,11.90
2019-02-15T10:24:21.129Z,11.40
2019-02-15T10:30:23.468Z,11.70
2019-02-15T10:36:25.681Z,10.70
2019-02-15T10:42:27.840Z,10.20
2019-02-15T10:48:30.131Z,10.50
2019-02-15T10:54:32.345Z,10.50
2019-02-15T11:00:34.860Z,10.50
2019-02-15T11:06:36.997Z,11.30
2019-02-15T11:12:39.326Z,11.40
2019-02-15T11:18:41.473Z,11.30
2019-02-15T11:24:43.981Z,11.40
2019-02-15T11:30:46.251Z,11.70
2019-02-15T11:36:48.496Z,11.70
2019-02-15T11:42:50.842Z,11.70
2019-02-15T11:48:53.162Z,11.40
2019-02-15T11:54:55.476Z,11.20
2019-02-15T12:00:57.947Z,11.00
2019-02-15T12:07:00.344Z,10.90
2019-02-15T12:13:03.663Z,10.10
2019-02-15T12:19:06.293Z,9.50
2019-02-15T12:25:11.608Z,9.50
2019-02-15T12:31:13.820Z,9.70
2019-02-15T12:37:16.196Z,9.80
2019-02-15T12:43:19.478Z,9.80
2019-02-15T12:49:21.890Z,10.20
2019-02-15T12:55:24.251Z,10.10
2019-02-15T13:01:26.529Z,10.30
2019-02-15T13:07:31.638Z,10.40
2019-02-15T13:13:33.984Z,10.60
2019-02-15T13:19:36.253Z,10.70
2019-02-15T13:25:39.604Z,10.90
2019-02-15T13:31:42.020Z,11.00
2019-02-15T13:37:44.371Z,11.20
2019-02-15T13:43:52.615Z,11.10
2019-02-15T13:49:54.900Z,11.20
2019-02-15T13:55:57.119Z,11.20
2019-02-15T14:01:59.285Z,11.20
2019-02-15T14:08:02.505Z,11.40
2019-02-15T14:14:04.686Z,11.50
2019-02-15T14:20:07.946Z,11.50
2019-02-15T14:26:14.233Z,11.40
2019-02-15T14:32:16.470Z,11.50
2019-02-15T14:38:18.739Z,11.40
2019-02-15T14:44:20.973Z,11.30
2019-02-15T14:50:23.255Z,11.30
2019-02-15T14:56:25.633Z,11.30
2019-02-15T15:02:27.859Z,11.40
2019-02-15T15:08:30.855Z,11.40
2019-02-15T15:14:33.151Z,11.30
2019-02-15T15:20:35.361Z,11.20
2019-02-15T15:26:37.700Z,11.00
2019-02-15T15:32:40.270Z,10.80
2019-02-15T15:38:42.649Z,10.70
2019-02-15T15:44:44.976Z,10.60
2019-02-15T15:50:47.322Z,10.40
2019-02-15T15:56:50.771Z,10.00
2019-02-15T16:02:54.039Z,9.70
2019-02-15T16:08:57.753Z,9.50
2019-02-15T16:15:00.366Z,9.00
2019-02-15T16:21:02.680Z,8.60
2019-02-15T16:27:05.973Z,8.20
2019-02-15T16:33:10.659Z,7.80
2019-02-15T16:39:12.783Z,7.30
2019-02-15T16:45:15.284Z,6.80
2019-02-15T16:51:17.491Z,6.50
2019-02-15T16:57:19.847Z,6.20
2019-02-15T17:03:25.408Z,5.90
2019-02-15T17:09:28.552Z,5.70
2019-02-15T17:15:31.012Z,5.40
2019-02-15T17:21:33.529Z,5.10
2019-02-15T17:27:36.851Z,4.90
2019-02-15T17:33:41.417Z,4.70
2019-02-15T17:39:43.633Z,4.50
2019-02-15T17:45:45.991Z,4.30
2019-02-15T17:51:49.589Z,4.10
2019-02-15T17:57:51.972Z,4.00
2019-02-15T18:03:54.426Z,3.90
2019-02-15T18:09:56.740Z,3.70
2019-02-15T18:15:59.094Z,3.50
2019-02-15T18:22:02.992Z,3.40
2019-02-15T18:28:05.482Z,3.30
2019-02-15T18:34:09.907Z,3.20
2019-02-15T18:40:12.304Z,3.10
2019-02-15T18:46:14.604Z,3.00
2019-02-15T18:52:16.991Z,2.90
2019-02-15T18:58:19.323Z,2.80
2019-02-15T19:04:22.268Z,2.80
2019-02-15T19:10:25.512Z,2.70
2019-02-15T19:16:28.758Z,2.60
2019-02-15T19:22:32.772Z,2.40
2019-02-15T19:28:35.145Z,2.30
2019-02-15T19:34:39.618Z,2.40
2019-02-15T19:40:42.290Z,2.50
2019-02-15T19:46:45.384Z,2.50
2019-02-15T19:52:48.420Z,2.40
2019-02-15T19:58:51.545Z,2.40
2019-02-15T20:04:54.028Z,2.30
2019-02-15T20:10:56.360Z,2.10
2019-02-15T20:16:58.769Z,1.90
2019-02-15T20:23:01.072Z,1.80
2019-02-15T20:29:03.317Z,1.70
2019-02-15T20:35:08.712Z,1.60
2019-02-15T20:41:11.005Z,1.60
2019-02-15T20:47:13.328Z,1.60
2019-02-15T20:53:15.919Z,1.50
2019-02-15T20:59:18.163Z,1.40
2019-02-15T21:05:20.442Z,1.30
2019-02-15T21:11:22.713Z,1.20
2019-02-15T21:17:24.979Z,1.10
2019-02-15T21:23:27.193Z,1.00
2019-02-15T21:29:29.499Z,0.90
2019-02-15T21:35:32.820Z,1.00
2019-02-15T21:41:36.069Z,1.00
2019-02-15T21:47:38.540Z,1.10
2019-02-15T21:53:40.935Z,1.00
2019-02-15T21:59:43.386Z,0.90
2019-02-15T22:05:45.640Z,0.90
2019-02-15T22:11:47.864Z,0.80
2019-02-15T22:17:51.247Z,0.80
2019-02-15T22:23:53.520Z,0.70
2019-02-15T22:29:56.850Z,0.60
2019-02-15T22:35:59.246Z,0.60
2019-02-15T22:42:01.442Z,0.50
2019-02-15T22:48:04.655Z,0.40
2019-02-15T22:54:06.905Z,0.30
2019-02-15T23:00:17.142Z,0.20
2019-02-15T23:06:19.319Z,0.10
2019-02-15T23:12:21.570Z,0.00
2019-02-15T23:18:23.816Z,0.00
2019-02-15T23:24:25.975Z,0.00
2019-02-15T23:30:28.291Z,0.00
2019-02-15T23:36:30.520Z,0.00
2019-02-15T23:42:32.788Z,0.00
2019-02-15T23:48:38.884Z,0.00
2019-02-15T23:54:41.088Z,-0.10
